createdAt,value
2022-10-04T00:00:26.890Z,69.08
2022-10-04T00:03:10.527Z,68.98
2022-10-04T00:05:39.987Z,69.01
2022-10-04T00:08:42.472Z,69.07
2022-10-04T00:11:19.176Z,69.17
2022-10-04T00:13:50.917Z,69.07
2022-10-04T00:16:37.021Z,68.88
2022-10-04T00:19:16.279Z,68.53
2022-10-04T00:21:58.199Z,69.15
2022-10-04T00:24:26.888Z,68.71
2022-10-04T00:27:12.830Z,68.94
2022-10-04T00:29:42.380Z,69.19
2022-10-04T00:32:12.635Z,69.23
2022-10-04T00:34:48.951Z,68.99
2022-10-04T00:37:22.056Z,69.36
2022-10-04T00:39:58.160Z,68.97
2022-10-04T00:42:39.941Z,68.92
2022-10-04T00:45:24.106Z,68.97
2022-10-04T00:48:09.117Z,69.38
2022-10-04T00:50:44.114Z,69.56
2022-10-04T00:53:19.535Z,69.79
2022-10-04T00:55:56.270Z,69.75
2022-10-04T00:58:33.601Z,69.81
2022-10-04T01:01:03.999Z,69.92
2022-10-04T01:03:38.447Z,69.97
2022-10-04T01:06:08.808Z,69.88
2022-10-04T01:08:44.563Z,69.85
2022-10-04T01:11:35.227Z,69.47
2022-10-04T01:14:27.048Z,69.85
2022-10-04T01:16:54.388Z,69.71
2022-10-04T01:19:24.739Z,69.68
2022-10-04T01:22:02.335Z,69.41
2022-10-04T01:24:36.870Z,69.37
2022-10-04T01:27:05.111Z,69.63
2022-10-04T01:29:32.345Z,69.49
2022-10-04T01:32:01.143Z,70.05
2022-10-04T01:38:58.674Z,69.76
2022-10-04T01:41:42.160Z,69.77
2022-10-04T01:48:44.647Z,70.34
2022-10-04T01:51:25.471Z,70.71
2022-10-04T01:54:04.983Z,71.06
2022-10-04T01:56:43.957Z,71.04
2022-10-04T01:59:26.936Z,70.83
2022-10-04T02:02:23.937Z,70.75
2022-10-04T02:04:56.276Z,71.26
2022-10-04T02:07:26.490Z,71.62
2022-10-04T02:09:59.614Z,71.44
2022-10-04T02:12:28.632Z,71.80
2022-10-04T02:14:58.350Z,71.49
2022-10-04T02:17:32.340Z,71.63
2022-10-04T02:20:01.887Z,72.10
2022-10-04T02:22:31.246Z,72.12
2022-10-04T02:29:28.694Z,72.59
2022-10-04T02:32:14.389Z,72.36
2022-10-04T02:34:41.910Z,72.45
2022-10-04T02:37:09.674Z,72.74
2022-10-04T02:40:11.256Z,72.97
2022-10-04T02:42:44.747Z,72.80
2022-10-04T02:45:28.308Z,72.86
2022-10-04T02:48:03.116Z,72.93
2022-10-04T02:50:46.701Z,73.58
2022-10-04T02:53:26.790Z,73.58
2022-10-04T02:55:57.987Z,73.58
2022-10-04T02:58:31.704Z,73.55
2022-10-04T03:01:00.879Z,73.55
2022-10-04T03:03:34.718Z,73.24
2022-10-04T03:06:09.161Z,73.89
2022-10-04T03:08:49.699Z,73.43
2022-10-04T03:11:19.048Z,73.90
2022-10-04T03:13:54.541Z,74.02
2022-10-04T03:16:22.476Z,73.88
2022-10-04T03:18:52.465Z,74.32
2022-10-04T03:21:21.854Z,73.70
2022-10-04T03:23:51.264Z,73.86
2022-10-04T03:26:42.439Z,73.75
2022-10-04T03:29:12.478Z,74.25
2022-10-04T03:31:47.279Z,73.71
2022-10-04T03:34:17.351Z,73.93
2022-10-04T03:36:48.221Z,73.72
2022-10-04T03:39:37.907Z,74.13
2022-10-04T03:42:10.949Z,73.64
2022-10-04T03:44:38.355Z,74.25
2022-10-04T03:47:15.678Z,74.25
2022-10-04T03:49:49.900Z,74.62
2022-10-04T03:52:32.823Z,74.15
2022-10-04T03:59:28.790Z,74.16
2022-10-04T04:02:06.821Z,73.85
2022-10-04T04:04:53.654Z,73.66
2022-10-04T04:07:28.052Z,74.11
2022-10-04T04:10:20.879Z,73.18
2022-10-04T04:12:58.925Z,71.94
2022-10-04T04:15:31.320Z,72.17
2022-10-04T04:18:11.440Z,72.33
2022-10-04T04:20:38.896Z,72.32
2022-10-04T04:23:14.688Z,72.05
2022-10-04T04:25:58.456Z,72.65
2022-10-04T04:28:59.082Z,72.65
2022-10-04T04:31:48.585Z,72.09
2022-10-04T04:34:29.992Z,72.43
2022-10-04T04:37:05.005Z,72.38
2022-10-04T04:39:40.031Z,71.78
2022-10-04T04:42:15.389Z,71.99
2022-10-04T04:44:58.336Z,70.81
2022-10-04T04:47:29.601Z,70.32
2022-10-04T04:50:03.514Z,68.58
2022-10-04T04:52:32.152Z,66.86
2022-10-04T04:55:00.416Z,66.75
2022-10-04T04:57:27.664Z,67.63
2022-10-04T04:59:58.886Z,67.73
2022-10-04T05:02:31.721Z,65.80
2022-10-04T05:05:21.564Z,66.36
2022-10-04T05:07:48.959Z,66.80
2022-10-04T05:10:49.280Z,65.70
2022-10-04T05:13:17.525Z,66.30
2022-10-04T05:15:45.021Z,66.93
2022-10-04T05:18:28.370Z,67.46
2022-10-04T05:20:58.020Z,67.98
2022-10-04T05:23:25.369Z,68.52
2022-10-04T05:25:52.747Z,68.51
2022-10-04T05:28:19.927Z,68.98
2022-10-04T05:30:58.912Z,69.07
2022-10-04T05:33:45.928Z,69.15
2022-10-04T05:36:13.914Z,68.23
2022-10-04T05:38:51.758Z,68.22
2022-10-04T05:41:34.920Z,68.77
2022-10-04T05:44:02.592Z,68.79
2022-10-04T05:46:34.257Z,68.60
2022-10-04T05:49:08.454Z,68.45
2022-10-04T05:51:49.446Z,68.24
2022-10-04T05:54:22.304Z,67.41
2022-10-04T05:56:58.485Z,67.50
2022-10-04T06:00:00.530Z,67.84
2022-10-04T06:02:56.071Z,67.78
2022-10-04T06:05:48.851Z,67.74
2022-10-04T06:08:30.882Z,68.01
2022-10-04T06:11:25.611Z,68.09
2022-10-04T06:14:13.866Z,67.87
2022-10-04T06:16:59.479Z,67.68
2022-10-04T06:19:49.485Z,67.49
2022-10-04T06:22:19.056Z,67.80
2022-10-04T06:24:52.297Z,67.28
2022-10-04T06:27:41.882Z,66.94
2022-10-04T06:30:19.826Z,66.86
2022-10-04T06:33:08.422Z,66.43
2022-10-04T06:35:44.473Z,66.28
2022-10-04T06:38:48.818Z,66.19
2022-10-04T06:41:24.290Z,65.65
2022-10-04T06:43:51.417Z,65.44
2022-10-04T06:46:38.562Z,65.04
2022-10-04T06:49:08.608Z,65.22
2022-10-04T06:52:17.378Z,64.73
2022-10-04T06:55:43.275Z,64.36
2022-10-04T06:58:33.326Z,63.94
2022-10-04T07:01:36.580Z,63.46
2022-10-04T07:04:12.450Z,63.18
2022-10-04T07:06:50.605Z,62.83
2022-10-04T07:09:25.021Z,61.84
2022-10-04T07:12:20.159Z,62.49
2022-10-04T07:14:52.190Z,62.15
2022-10-04T07:17:37.761Z,61.79
2022-10-04T07:20:18.573Z,61.42
2022-10-04T07:22:51.328Z,61.38
2022-10-04T07:25:26.780Z,60.74
2022-10-04T07:28:24.102Z,60.11
2022-10-04T07:30:58.145Z,59.74
2022-10-04T07:33:29.026Z,59.77
2022-10-04T07:36:22.986Z,59.37
2022-10-04T07:39:06.909Z,59.57
2022-10-04T07:41:50.056Z,58.98
2022-10-04T07:44:35.565Z,58.08
2022-10-04T07:47:22.318Z,54.58
2022-10-04T07:49:54.087Z,49.94
2022-10-04T07:52:29.952Z,47.48
2022-10-04T07:55:24.125Z,44.07
2022-10-04T07:58:14.219Z,45.71
2022-10-04T08:01:19.373Z,44.04
2022-10-04T08:04:01.090Z,46.15
2022-10-04T08:07:03.501Z,44.63
2022-10-04T08:09:42.449Z,45.93
2022-10-04T08:12:21.764Z,44.33
2022-10-04T08:14:55.068Z,41.73
2022-10-04T08:17:34.126Z,40.20
2022-10-04T08:20:25.040Z,39.10
2022-10-04T08:23:22.630Z,42.96
2022-10-04T08:26:15.078Z,46.44
2022-10-04T08:29:11.040Z,48.66
2022-10-04T08:31:49.895Z,49.34
2022-10-04T08:34:40.382Z,50.54
2022-10-04T08:37:37.605Z,50.75
2022-10-04T08:40:44.262Z,51.42
2022-10-04T08:43:43.535Z,52.14
2022-10-04T08:46:30.168Z,52.23
2022-10-04T08:49:24.137Z,52.45
2022-10-04T08:52:18.745Z,52.18
2022-10-04T08:55:40.464Z,52.57
2022-10-04T08:58:19.009Z,52.24
2022-10-04T09:01:25.037Z,50.93
2022-10-04T09:04:01.809Z,51.49
2022-10-04T09:07:10.680Z,51.80
2022-10-04T09:10:31.182Z,50.82
2022-10-04T09:13:00.693Z,51.06
2022-10-04T09:15:52.340Z,50.62
2022-10-04T09:18:47.106Z,48.01
2022-10-04T09:21:36.223Z,48.61
2022-10-04T09:24:37.368Z,44.87
2022-10-04T09:27:53.204Z,42.17
2022-10-04T09:30:16.353Z,42.15
2022-10-04T09:33:12.573Z,40.97
2022-10-04T09:35:51.549Z,42.72
2022-10-04T09:38:43.360Z,45.47
2022-10-04T09:41:28.919Z,47.17
2022-10-04T09:44:26.627Z,47.65
2022-10-04T09:47:13.147Z,47.84
2022-10-04T09:50:05.815Z,48.48
2022-10-04T09:52:35.712Z,49.03
2022-10-04T09:55:14.929Z,49.19
2022-10-04T09:58:13.981Z,49.93
2022-10-04T10:01:14.121Z,50.32
2022-10-04T10:03:50.770Z,50.43
2022-10-04T10:06:33.493Z,50.71
2022-10-04T10:09:56.995Z,51.00
2022-10-04T10:12:54.608Z,51.30
2022-10-04T10:15:35.623Z,51.69
2022-10-04T10:18:27.950Z,50.96
2022-10-04T10:21:08.471Z,51.77
2022-10-04T10:24:04.005Z,51.62
2022-10-04T10:26:40.708Z,52.25
2022-10-04T10:29:51.789Z,52.48
2022-10-04T10:32:41.892Z,54.70
2022-10-04T10:35:24.778Z,57.71
2022-10-04T10:38:56.732Z,64.56
2022-10-04T10:42:03.648Z,65.65
2022-10-04T10:44:57.943Z,69.17
2022-10-04T10:47:39.885Z,68.31
2022-10-04T10:50:58.668Z,71.23
2022-10-04T10:53:47.614Z,69.43
2022-10-04T10:56:40.027Z,67.39
2022-10-04T10:59:42.711Z,66.05
2022-10-04T11:03:12.202Z,66.16
2022-10-04T11:05:49.207Z,67.49
2022-10-04T11:08:20.242Z,67.21
2022-10-04T11:11:03.468Z,68.13
2022-10-04T11:13:51.653Z,68.82
2022-10-04T11:16:38.653Z,69.49
2022-10-04T11:19:29.433Z,67.65
2022-10-04T11:22:38.376Z,68.83
2022-10-04T11:25:22.532Z,68.33
2022-10-04T11:28:14.025Z,68.53
2022-10-04T11:31:00.302Z,69.46
2022-10-04T11:34:16.399Z,69.30
2022-10-04T11:36:44.171Z,68.69
2022-10-04T11:39:25.954Z,68.02
2022-10-04T11:42:22.365Z,67.04
2022-10-04T11:45:14.704Z,67.11
2022-10-04T11:48:11.978Z,68.48
2022-10-04T11:51:03.492Z,67.54
2022-10-04T11:54:04.601Z,67.78
2022-10-04T11:56:43.964Z,67.31
2022-10-04T11:59:20.458Z,66.65
2022-10-04T12:02:20.340Z,66.04
2022-10-04T12:05:18.037Z,64.96
2022-10-04T12:07:50.601Z,64.68
2022-10-04T12:10:40.507Z,64.09
2022-10-04T12:13:10.529Z,63.60
2022-10-04T12:16:05.237Z,63.28
2022-10-04T12:18:40.918Z,63.91
2022-10-04T12:21:10.918Z,63.34
2022-10-04T12:23:48.520Z,62.13
2022-10-04T12:26:26.251Z,61.88
2022-10-04T12:29:10.196Z,62.67
2022-10-04T12:31:53.500Z,63.49
2022-10-04T12:34:32.155Z,63.38
2022-10-04T12:37:17.116Z,62.60
2022-10-04T12:39:53.173Z,62.00
2022-10-04T12:42:45.878Z,61.66
2022-10-04T12:45:16.062Z,61.88
2022-10-04T12:47:53.012Z,62.02
2022-10-04T12:50:43.079Z,62.08
2022-10-04T12:53:34.750Z,61.21
2022-10-04T12:56:28.329Z,60.87
2022-10-04T12:59:19.034Z,61.33
2022-10-04T13:02:15.275Z,61.65
2022-10-04T13:04:54.962Z,61.94
2022-10-04T13:07:43.089Z,61.46
2022-10-04T13:10:26.152Z,60.30
2022-10-04T13:13:31.209Z,60.42
2022-10-04T13:19:04.829Z,60.26
2022-10-04T13:24:55.252Z,60.36
2022-10-04T13:28:15.420Z,60.20
2022-10-04T13:30:59.171Z,60.36
2022-10-04T13:33:49.930Z,60.55
2022-10-04T13:36:47.448Z,61.86
2022-10-04T13:39:20.238Z,62.65
2022-10-04T13:42:11.448Z,62.52
2022-10-04T13:45:04.006Z,62.92
2022-10-04T13:48:02.481Z,62.95
2022-10-04T13:50:44.841Z,61.98
2022-10-04T13:53:56.259Z,62.30
2022-10-04T13:56:42.901Z,62.76
2022-10-04T13:59:27.166Z,62.92
2022-10-04T14:02:17.558Z,62.58
2022-10-04T14:05:10.224Z,62.75
2022-10-04T14:07:49.349Z,61.97
2022-10-04T14:10:31.756Z,62.31
2022-10-04T14:13:06.463Z,62.68
2022-10-04T14:15:39.311Z,62.42
2022-10-04T14:18:29.258Z,62.80
2022-10-04T14:21:19.798Z,62.52
2022-10-04T14:24:28.485Z,62.05
2022-10-04T14:27:10.063Z,61.87
2022-10-04T14:30:15.602Z,60.91
2022-10-04T14:33:20.461Z,61.61
2022-10-04T14:36:13.371Z,62.06
2022-10-04T14:38:58.117Z,61.60
2022-10-04T14:41:59.199Z,61.96
2022-10-04T14:44:48.810Z,62.06
2022-10-04T14:47:25.711Z,62.16
2022-10-04T14:50:27.181Z,61.88
2022-10-04T14:53:17.784Z,61.98
2022-10-04T14:56:12.987Z,61.81
2022-10-04T14:58:50.808Z,62.12
2022-10-04T15:01:28.422Z,63.11
2022-10-04T15:04:02.482Z,63.55
2022-10-04T15:07:11.311Z,63.71
2022-10-04T15:09:53.923Z,64.44
2022-10-04T15:13:09.790Z,64.71
2022-10-04T15:16:14.433Z,64.79
2022-10-04T15:18:44.804Z,65.25
2022-10-04T15:21:35.890Z,65.16
2022-10-04T15:24:19.603Z,65.08
2022-10-04T15:27:24.105Z,65.09
2022-10-04T15:29:58.201Z,65.13
2022-10-04T15:32:38.636Z,65.09
2022-10-04T15:35:27.365Z,65.62
2022-10-04T15:38:26.965Z,65.89
2022-10-04T15:41:13.899Z,65.67
2022-10-04T15:44:07.508Z,65.88
2022-10-04T15:46:38.895Z,66.40
2022-10-04T15:49:29.551Z,65.66
2022-10-04T15:52:21.665Z,65.46
2022-10-04T15:54:54.887Z,65.84
2022-10-04T15:57:30.346Z,65.05
2022-10-04T16:00:26.862Z,65.54
2022-10-04T16:03:21.515Z,65.54
2022-10-04T16:06:20.773Z,65.70
2022-10-04T16:09:21.725Z,65.52
2022-10-04T16:12:07.745Z,66.11
2022-10-04T16:14:52.597Z,66.18
2022-10-04T16:17:46.649Z,66.18
2022-10-04T16:20:51.500Z,65.61
2022-10-04T16:23:48.130Z,65.88
2022-10-04T16:26:20.162Z,65.24
2022-10-04T16:28:54.844Z,65.22
2022-10-04T16:31:46.420Z,64.86
2022-10-04T16:34:36.516Z,64.61
2022-10-04T16:37:17.428Z,64.17
2022-10-04T16:40:00.872Z,64.11
2022-10-04T16:42:49.919Z,64.10
2022-10-04T16:45:31.253Z,64.13
2022-10-04T16:48:18.662Z,63.96
2022-10-04T16:51:19.676Z,63.58
2022-10-04T16:54:07.573Z,64.05
2022-10-04T16:57:00.789Z,63.63
2022-10-04T16:59:42.571Z,63.94
2022-10-04T17:02:16.205Z,63.43
2022-10-04T17:04:56.189Z,64.10
2022-10-04T17:07:52.130Z,63.78
2022-10-04T17:10:34.380Z,63.69
2022-10-04T17:13:34.513Z,64.16
2022-10-04T17:16:21.370Z,64.13
2022-10-04T17:19:04.475Z,63.85
2022-10-04T17:21:55.159Z,63.52
2022-10-04T17:24:34.365Z,63.96
2022-10-04T17:27:26.998Z,62.96
2022-10-04T17:30:18.932Z,63.00
2022-10-04T17:33:06.953Z,62.65
2022-10-04T17:35:57.288Z,62.38
2022-10-04T17:38:45.200Z,62.62
2022-10-04T17:41:18.845Z,62.71
2022-10-04T17:43:58.982Z,62.54
2022-10-04T17:46:29.858Z,62.15
2022-10-04T17:49:44.484Z,62.09
2022-10-04T17:53:02.209Z,62.28
2022-10-04T17:55:49.337Z,62.03
2022-10-04T17:58:31.274Z,62.24
2022-10-04T18:01:15.037Z,62.23
2022-10-04T18:04:09.813Z,62.92
2022-10-04T18:06:52.071Z,62.95
2022-10-04T18:09:31.023Z,62.93
2022-10-04T18:12:28.203Z,63.26
2022-10-04T18:15:17.893Z,63.30
2022-10-04T18:17:49.494Z,63.76
2022-10-04T18:20:27.664Z,63.94
2022-10-04T18:23:01.138Z,64.45
2022-10-04T18:25:35.812Z,64.52
2022-10-04T18:28:12.702Z,64.66
2022-10-04T18:30:46.611Z,64.30
2022-10-04T18:33:18.406Z,64.93
2022-10-04T18:35:56.646Z,64.79
2022-10-04T18:38:35.341Z,65.16
2022-10-04T18:41:15.978Z,64.90
2022-10-04T18:44:30.314Z,64.70
2022-10-04T18:47:01.005Z,64.61
2022-10-04T18:49:32.117Z,64.63
2022-10-04T18:52:32.795Z,64.92
2022-10-04T18:55:25.709Z,65.10
2022-10-04T18:58:48.579Z,64.89
2022-10-04T19:02:03.964Z,65.18
2022-10-04T19:04:55.276Z,64.62
2022-10-04T19:07:41.769Z,65.21
2022-10-04T19:10:34.304Z,65.40
2022-10-04T19:13:39.610Z,65.30
2022-10-04T19:16:15.642Z,64.50
2022-10-04T19:19:06.154Z,65.21
2022-10-04T19:22:02.342Z,64.78
2022-10-04T19:24:49.821Z,65.42
2022-10-04T19:27:40.470Z,65.43
2022-10-04T19:30:28.859Z,64.99
2022-10-04T19:33:22.442Z,65.28
2022-10-04T19:36:27.040Z,65.01
2022-10-04T19:39:12.590Z,65.21
2022-10-04T19:42:15.415Z,64.86
2022-10-04T19:44:42.901Z,66.48
2022-10-04T19:47:37.227Z,65.71
2022-10-04T19:50:36.330Z,66.24
2022-10-04T19:53:15.808Z,64.92
2022-10-04T19:55:52.491Z,65.12
2022-10-04T19:58:25.419Z,64.99
2022-10-04T20:00:55.349Z,65.36
2022-10-04T20:03:27.052Z,65.55
2022-10-04T20:05:55.807Z,66.24
2022-10-04T20:08:49.780Z,66.96
2022-10-04T20:11:28.782Z,67.04
2022-10-04T20:14:17.693Z,67.40
2022-10-04T20:16:49.531Z,67.76
2022-10-04T20:19:24.298Z,67.45
2022-10-04T20:21:52.672Z,68.10
2022-10-04T20:24:44.541Z,67.89
2022-10-04T20:27:25.723Z,67.22
2022-10-04T20:30:00.441Z,67.04
2022-10-04T20:32:28.851Z,66.86
2022-10-04T20:34:58.335Z,66.60
2022-10-04T20:37:44.856Z,67.14
2022-10-04T20:40:42.944Z,66.64
2022-10-04T20:43:17.235Z,66.71
2022-10-04T20:45:48.920Z,66.36
2022-10-04T20:48:22.335Z,66.65
2022-10-04T20:50:50.005Z,67.23
2022-10-04T20:53:30.300Z,66.67
2022-10-04T20:56:20.957Z,66.50
2022-10-04T20:58:54.325Z,67.00
2022-10-04T21:01:37.764Z,66.30
2022-10-04T21:05:04.342Z,66.41
2022-10-04T21:07:55.148Z,65.82
2022-10-04T21:10:22.922Z,65.80
2022-10-04T21:12:53.011Z,66.49
2022-10-04T21:15:23.070Z,66.73
2022-10-04T21:18:12.650Z,67.20
2022-10-04T21:20:51.912Z,66.26
2022-10-04T21:23:36.291Z,66.09
2022-10-04T21:26:24.625Z,65.65
2022-10-04T21:29:00.181Z,66.37
2022-10-04T21:31:28.057Z,65.91
2022-10-04T21:33:55.941Z,66.46
2022-10-04T21:36:25.343Z,65.99
2022-10-04T21:38:54.541Z,66.28
2022-10-04T21:41:22.166Z,65.11
2022-10-04T21:43:49.861Z,65.58
2022-10-04T21:46:20.415Z,65.10
2022-10-04T21:48:48.263Z,65.10
2022-10-04T21:51:15.350Z,64.77
2022-10-04T21:53:42.541Z,64.95
2022-10-04T21:56:09.698Z,65.34
2022-10-04T21:58:36.767Z,64.86
2022-10-04T22:01:06.554Z,64.74
2022-10-04T22:03:36.941Z,64.81
2022-10-04T22:06:04.214Z,64.63
2022-10-04T22:08:31.109Z,64.33
2022-10-04T22:10:58.215Z,64.85
2022-10-04T22:13:26.936Z,64.76
2022-10-04T22:15:54.133Z,64.95
2022-10-04T22:18:21.148Z,64.58
2022-10-04T22:20:48.140Z,64.66
2022-10-04T22:23:24.983Z,65.10
2022-10-04T22:25:52.658Z,64.73
2022-10-04T22:28:25.585Z,65.01
2022-10-04T22:30:55.902Z,64.57
2022-10-04T22:33:34.105Z,64.91
2022-10-04T22:36:19.225Z,64.83
2022-10-04T22:39:13.075Z,65.14
2022-10-04T22:41:48.160Z,65.43
2022-10-04T22:44:27.589Z,65.51
2022-10-04T22:46:57.904Z,65.91
2022-10-04T22:49:27.818Z,65.64
2022-10-04T22:51:56.731Z,65.92
2022-10-04T22:54:35.886Z,65.73
2022-10-04T22:57:03.110Z,65.24
2022-10-04T22:59:41.982Z,65.44
2022-10-04T23:02:20.649Z,65.42
2022-10-04T23:05:09.702Z,66.30
2022-10-04T23:07:38.555Z,65.80
2022-10-04T23:10:31.447Z,65.89
2022-10-04T23:12:58.626Z,66.09
2022-10-04T23:15:27.817Z,65.79
2022-10-04T23:17:58.146Z,65.51
2022-10-04T23:20:25.191Z,65.61
2022-10-04T23:22:54.315Z,65.50
2022-10-04T23:25:28.029Z,65.58
2022-10-04T23:28:01.566Z,65.03
2022-10-04T23:30:29.277Z,65.25
2022-10-04T23:33:00.600Z,65.80
2022-10-04T23:35:33.256Z,65.04
2022-10-04T23:38:01.800Z,65.74
2022-10-04T23:40:31.667Z,65.56
2022-10-04T23:43:02.043Z,65.15
2022-10-04T23:45:29.333Z,64.95
2022-10-04T23:47:58.453Z,65.16
2022-10-04T23:50:29.788Z,65.30
2022-10-04T23:53:02.623Z,64.83
2022-10-04T23:55:36.315Z,64.95
2022-10-04T23:58:13.823Z,65.31
